createdAt,value
2022-09-24T00:01:17.630Z,13.10
2022-09-24T00:03:53.207Z,13.18
2022-09-24T00:06:26.927Z,13.27
2022-09-24T00:08:57.971Z,13.29
2022-09-24T00:11:28.806Z,13.29
2022-09-24T00:13:58.757Z,13.29
2022-09-24T00:16:30.635Z,13.23
2022-09-24T00:19:02.730Z,13.13
2022-09-24T00:21:34.469Z,13.04
2022-09-24T00:24:05.514Z,12.98
2022-09-24T00:26:50.659Z,12.90
2022-09-24T00:29:20.962Z,12.85
2022-09-24T00:31:50.227Z,12.76
2022-09-24T00:34:20.884Z,12.73
2022-09-24T00:36:49.048Z,12.75
2022-09-24T00:39:17.775Z,12.89
2022-09-24T00:41:47.314Z,12.99
2022-09-24T00:44:53.787Z,12.95
2022-09-24T00:47:30.653Z,12.81
2022-09-24T00:50:08.554Z,12.59
2022-09-24T00:52:41.937Z,12.56
2022-09-24T00:55:10.939Z,12.60
2022-09-24T00:57:41.027Z,12.53
2022-09-24T01:00:10.428Z,12.53
2022-09-24T01:02:43.396Z,12.43
2022-09-24T01:05:14.913Z,12.30
2022-09-24T01:07:43.071Z,12.18
2022-09-24T01:10:15.191Z,12.07
2022-09-24T01:12:50.627Z,12.10
2022-09-24T01:15:26.447Z,11.98
2022-09-24T01:18:02.314Z,11.83
2022-09-24T01:20:55.585Z,11.65
2022-09-24T01:23:52.948Z,11.56
2022-09-24T01:26:41.194Z,11.49
2022-09-24T01:29:42.057Z,11.51
2022-09-24T01:32:20.380Z,11.57
2022-09-24T01:34:53.537Z,11.52
2022-09-24T01:37:26.736Z,11.45
2022-09-24T01:39:58.016Z,11.28
2022-09-24T01:42:30.640Z,11.17
2022-09-24T01:45:02.442Z,11.07
2022-09-24T01:47:35.008Z,11.03
2022-09-24T01:50:06.000Z,10.98
2022-09-24T01:52:41.621Z,10.82
2022-09-24T01:55:14.282Z,10.83
2022-09-24T01:57:48.337Z,10.87
2022-09-24T02:00:20.320Z,10.81
2022-09-24T02:02:56.111Z,10.68
2022-09-24T02:05:43.022Z,10.64
2022-09-24T02:08:17.729Z,10.63
2022-09-24T02:10:52.239Z,10.69
2022-09-24T02:13:25.034Z,10.56
2022-09-24T02:16:00.707Z,10.53
2022-09-24T02:18:34.963Z,10.36
2022-09-24T02:21:05.378Z,10.36
2022-09-24T02:23:37.706Z,10.30
2022-09-24T02:26:06.811Z,10.33
2022-09-24T02:28:36.742Z,10.21
2022-09-24T02:31:09.346Z,10.09
2022-09-24T02:34:00.964Z,10.08
2022-09-24T02:36:29.783Z,9.80
2022-09-24T02:38:57.893Z,9.74
2022-09-24T02:41:27.098Z,9.75
2022-09-24T02:43:54.978Z,9.78
2022-09-24T02:46:24.567Z,9.81
2022-09-24T02:48:52.692Z,9.77
2022-09-24T02:51:21.711Z,9.80
2022-09-24T02:53:49.719Z,9.87
2022-09-24T02:56:17.751Z,9.58
2022-09-24T02:58:46.046Z,9.72
2022-09-24T03:01:14.699Z,9.83
2022-09-24T03:03:44.451Z,9.82
2022-09-24T03:06:14.067Z,9.76
2022-09-24T03:08:42.378Z,9.72
2022-09-24T03:11:15.094Z,9.64
2022-09-24T03:13:46.456Z,9.53
2022-09-24T03:16:14.611Z,9.51
2022-09-24T03:18:45.039Z,9.43
2022-09-24T03:21:14.579Z,9.35
2022-09-24T03:23:42.537Z,9.43
2022-09-24T03:26:12.916Z,9.49
2022-09-24T03:28:41.263Z,9.64
2022-09-24T03:31:08.916Z,9.67
2022-09-24T03:33:39.616Z,9.74
2022-09-24T03:36:12.227Z,9.95
2022-09-24T03:38:42.231Z,9.95
2022-09-24T03:41:11.839Z,9.69
2022-09-24T03:43:40.244Z,9.47
2022-09-24T03:46:09.361Z,9.39
2022-09-24T03:48:39.145Z,9.47
2022-09-24T03:51:12.353Z,9.77
2022-09-24T03:53:40.860Z,10.03
2022-09-24T03:56:11.889Z,10.27
2022-09-24T03:58:40.489Z,10.41
2022-09-24T04:01:09.962Z,10.43
2022-09-24T04:03:38.376Z,10.24
2022-09-24T04:06:08.993Z,9.93
2022-09-24T04:08:39.747Z,9.99
2022-09-24T04:11:08.976Z,10.00
2022-09-24T04:13:37.342Z,10.00
2022-09-24T04:16:05.767Z,9.93
2022-09-24T04:18:38.938Z,10.02
2022-09-24T04:21:09.359Z,10.02
2022-09-24T04:23:37.661Z,9.91
2022-09-24T04:26:05.388Z,9.90
2022-09-24T04:28:33.766Z,9.74
2022-09-24T04:31:04.696Z,9.70
2022-09-24T04:33:32.869Z,9.86
2022-09-24T04:36:02.317Z,10.05
2022-09-24T04:38:31.697Z,10.12
2022-09-24T04:41:06.273Z,10.13
2022-09-24T04:43:34.560Z,10.09
2022-09-24T04:46:03.893Z,10.04
2022-09-24T04:48:32.682Z,10.02
2022-09-24T04:51:02.462Z,9.94
2022-09-24T04:53:33.501Z,9.84
2022-09-24T04:56:03.244Z,9.77
2022-09-24T04:58:31.858Z,9.81
2022-09-24T05:01:04.920Z,9.65
2022-09-24T05:03:33.323Z,9.76
2022-09-24T05:06:02.041Z,9.80
2022-09-24T05:08:29.947Z,9.76
2022-09-24T05:10:59.206Z,9.56
2022-09-24T05:13:27.953Z,9.50
2022-09-24T05:15:55.928Z,9.56
2022-09-24T05:18:24.450Z,9.69
2022-09-24T05:20:53.038Z,9.54
2022-09-24T05:23:21.589Z,9.58
2022-09-24T05:26:07.813Z,9.59
2022-09-24T05:28:37.752Z,9.65
2022-09-24T05:31:06.810Z,9.75
2022-09-24T05:33:35.075Z,9.99
2022-09-24T05:36:03.666Z,10.25
2022-09-24T05:38:33.080Z,10.30
2022-09-24T05:41:01.230Z,10.39
2022-09-24T05:43:29.465Z,10.56
2022-09-24T05:45:59.293Z,10.98
2022-09-24T05:48:27.163Z,11.28
2022-09-24T05:50:57.297Z,11.59
2022-09-24T05:53:25.790Z,11.79
2022-09-24T05:55:54.412Z,11.94
2022-09-24T05:58:22.357Z,12.22
2022-09-24T06:00:51.115Z,12.48
2022-09-24T06:03:21.014Z,12.64
2022-09-24T06:05:51.840Z,12.81
2022-09-24T06:08:21.494Z,12.92
2022-09-24T06:10:49.789Z,13.04
2022-09-24T06:13:21.958Z,13.13
2022-09-24T06:15:50.486Z,13.24
2022-09-24T06:18:20.869Z,13.42
2022-09-24T06:20:48.695Z,13.56
2022-09-24T06:23:16.457Z,12.37
2022-09-24T06:25:44.335Z,11.64
2022-09-24T06:28:12.161Z,11.88
2022-09-24T06:30:41.179Z,12.31
2022-09-24T06:35:45.289Z,12.81
2022-09-24T06:38:14.800Z,12.76
2022-09-24T06:40:43.855Z,12.94
2022-09-24T06:43:13.814Z,13.13
2022-09-24T06:45:43.879Z,12.35
2022-09-24T06:48:14.462Z,13.16
2022-09-24T06:50:45.589Z,13.31
2022-09-24T06:53:14.436Z,13.42
2022-09-24T06:55:42.924Z,13.82
2022-09-24T06:58:12.814Z,13.57
2022-09-24T07:00:43.108Z,13.96
2022-09-24T07:03:17.919Z,14.47
2022-09-24T07:05:47.613Z,14.71
2022-09-24T07:08:15.736Z,15.09
2022-09-24T07:10:45.488Z,16.19
2022-09-24T07:13:20.462Z,17.26
2022-09-24T07:15:50.259Z,18.43
2022-09-24T07:18:18.684Z,19.42
2022-09-24T07:20:52.675Z,19.84
2022-09-24T07:23:21.555Z,19.28
2022-09-24T07:25:50.440Z,16.41
2022-09-24T07:28:20.878Z,14.74
2022-09-24T07:30:57.106Z,13.84
2022-09-24T07:33:25.634Z,14.16
2022-09-24T07:35:54.871Z,13.93
2022-09-24T07:38:23.517Z,13.74
2022-09-24T07:40:51.899Z,14.39
2022-09-24T07:43:21.802Z,16.05
2022-09-24T07:45:49.725Z,16.89
2022-09-24T07:48:17.556Z,17.30
2022-09-24T07:50:45.698Z,17.85
2022-09-24T07:53:16.922Z,18.55
2022-09-24T07:55:45.518Z,19.36
2022-09-24T07:58:15.813Z,20.02
2022-09-24T08:00:44.370Z,20.37
2022-09-24T08:03:12.255Z,20.58
2022-09-24T08:05:45.445Z,20.53
2022-09-24T08:08:15.305Z,20.64
2022-09-24T08:10:43.733Z,20.76
2022-09-24T08:13:12.246Z,21.07
2022-09-24T08:15:40.298Z,21.14
2022-09-24T08:18:10.714Z,21.13
2022-09-24T08:20:39.632Z,21.04
2022-09-24T08:23:10.044Z,21.10
2022-09-24T08:25:40.025Z,21.31
2022-09-24T08:28:10.754Z,21.66
2022-09-24T08:30:40.957Z,21.71
2022-09-24T08:33:09.221Z,21.72
2022-09-24T08:35:40.309Z,21.61
2022-09-24T08:38:08.910Z,21.78
2022-09-24T08:40:44.076Z,21.20
2022-09-24T08:43:24.237Z,19.15
2022-09-24T08:46:16.182Z,19.72
2022-09-24T08:48:51.749Z,19.69
2022-09-24T08:51:24.457Z,19.31
2022-09-24T08:53:58.610Z,19.92
2022-09-24T08:56:35.088Z,20.44
2022-09-24T08:59:12.411Z,20.65
2022-09-24T09:01:48.066Z,20.91
2022-09-24T09:04:29.777Z,20.97
2022-09-24T09:07:09.322Z,20.72
2022-09-24T09:09:46.289Z,20.51
2022-09-24T09:12:23.890Z,20.00
2022-09-24T09:14:57.147Z,19.08
2022-09-24T09:17:39.031Z,18.84
2022-09-24T09:20:18.738Z,19.23
2022-09-24T09:22:49.864Z,19.68
2022-09-24T09:25:24.844Z,20.01
2022-09-24T09:28:00.855Z,20.46
2022-09-24T09:30:34.361Z,20.33
2022-09-24T09:33:10.335Z,19.20
2022-09-24T09:35:47.182Z,19.40
2022-09-24T09:38:23.648Z,20.31
2022-09-24T09:41:00.210Z,21.30
2022-09-24T09:43:30.464Z,20.38
2022-09-24T09:46:11.503Z,20.23
2022-09-24T09:48:45.820Z,20.45
2022-09-24T09:51:27.217Z,22.04
2022-09-24T09:53:57.111Z,24.63
2022-09-24T09:56:27.774Z,27.22
2022-09-24T09:59:08.304Z,28.70
2022-09-24T10:01:40.587Z,30.43
2022-09-24T10:04:29.543Z,31.73
2022-09-24T10:07:07.738Z,30.77
2022-09-24T10:09:36.272Z,30.26
2022-09-24T10:12:22.130Z,29.34
2022-09-24T10:15:01.359Z,27.66
2022-09-24T10:17:32.833Z,27.24
2022-09-24T10:20:02.607Z,26.77
2022-09-24T10:22:32.135Z,26.34
2022-09-24T10:25:02.090Z,23.45
2022-09-24T10:27:35.811Z,23.49
2022-09-24T10:30:32.561Z,24.63
2022-09-24T10:33:02.888Z,24.51
2022-09-24T10:35:34.961Z,23.59
2022-09-24T10:38:05.718Z,23.04
2022-09-24T10:40:42.701Z,24.05
2022-09-24T10:43:19.477Z,24.84
2022-09-24T10:46:13.708Z,23.69
2022-09-24T10:48:46.914Z,24.62
2022-09-24T10:51:28.953Z,23.85
2022-09-24T10:54:34.896Z,23.15
2022-09-24T10:57:14.678Z,24.70
2022-09-24T10:59:55.118Z,25.86
2022-09-24T11:02:59.910Z,27.38
2022-09-24T11:05:32.984Z,28.55
2022-09-24T11:08:16.958Z,27.29
2022-09-24T11:11:02.885Z,27.25
2022-09-24T11:13:40.529Z,29.90
2022-09-24T11:16:26.543Z,30.90
2022-09-24T11:19:01.514Z,33.07
2022-09-24T11:21:59.886Z,33.06
2022-09-24T11:24:48.795Z,32.61
2022-09-24T11:27:43.745Z,34.12
2022-09-24T11:30:14.931Z,33.90
2022-09-24T11:33:01.247Z,31.38
2022-09-24T11:35:48.419Z,30.21
2022-09-24T11:38:19.883Z,27.00
2022-09-24T11:41:10.333Z,26.96
2022-09-24T11:43:54.955Z,26.63
2022-09-24T11:46:39.260Z,26.42
2022-09-24T11:49:32.628Z,25.86
2022-09-24T11:52:07.421Z,26.68
2022-09-24T11:54:41.346Z,27.60
2022-09-24T11:57:16.144Z,28.13
2022-09-24T11:59:50.225Z,28.75
2022-09-24T12:02:24.987Z,29.76
2022-09-24T12:04:59.606Z,30.83
2022-09-24T12:07:35.432Z,30.46
2022-09-24T12:10:08.467Z,30.85
2022-09-24T12:12:42.081Z,29.62
2022-09-24T12:15:18.431Z,29.44
2022-09-24T12:17:52.332Z,29.37
2022-09-24T12:20:24.654Z,28.99
2022-09-24T12:22:59.942Z,28.69
2022-09-24T12:25:30.794Z,28.55
2022-09-24T12:28:00.557Z,26.58
2022-09-24T12:30:57.748Z,27.00
2022-09-24T12:33:30.466Z,28.62
2022-09-24T12:36:07.192Z,30.88
2022-09-24T12:38:40.721Z,33.30
2022-09-24T12:41:33.497Z,35.83
2022-09-24T12:44:08.141Z,33.57
2022-09-24T12:46:42.799Z,32.54
2022-09-24T12:49:25.515Z,32.14
2022-09-24T12:51:55.699Z,31.22
2022-09-24T12:54:30.283Z,30.67
2022-09-24T12:57:10.333Z,30.33
2022-09-24T12:59:49.119Z,29.91
2022-09-24T13:02:21.197Z,29.23
2022-09-24T13:05:04.594Z,28.96
2022-09-24T13:07:35.751Z,28.65
2022-09-24T13:10:24.654Z,28.78
2022-09-24T13:12:54.359Z,28.40
2022-09-24T13:15:31.904Z,29.44
2022-09-24T13:18:07.093Z,30.14
2022-09-24T13:20:39.998Z,30.02
2022-09-24T13:23:32.055Z,28.15
2022-09-24T13:26:04.949Z,26.83
2022-09-24T13:28:38.648Z,27.48
2022-09-24T13:31:15.956Z,26.42
2022-09-24T13:33:47.535Z,26.81
2022-09-24T13:36:19.362Z,27.61
2022-09-24T13:38:57.485Z,27.79
2022-09-24T13:41:43.756Z,28.15
2022-09-24T13:44:19.175Z,26.66
2022-09-24T13:46:48.696Z,25.72
2022-09-24T13:49:19.961Z,25.70
2022-09-24T13:52:07.805Z,26.01
2022-09-24T13:54:46.777Z,26.10
2022-09-24T13:57:23.506Z,24.52
2022-09-24T13:59:51.669Z,24.41
2022-09-24T14:02:28.114Z,24.20
2022-09-24T14:04:58.657Z,24.39
2022-09-24T14:07:28.829Z,24.73
2022-09-24T14:10:08.621Z,24.65
2022-09-24T14:12:38.343Z,24.18
2022-09-24T14:15:15.794Z,24.09
2022-09-24T14:17:44.602Z,24.11
2022-09-24T14:20:15.813Z,24.23
2022-09-24T14:22:47.024Z,24.42
2022-09-24T14:25:18.640Z,24.46
2022-09-24T14:27:52.016Z,24.45
2022-09-24T14:30:22.864Z,23.62
2022-09-24T14:32:54.486Z,22.92
2022-09-24T14:35:30.173Z,22.97
2022-09-24T14:38:06.451Z,23.05
2022-09-24T14:40:43.406Z,22.99
2022-09-24T14:43:22.110Z,22.94
2022-09-24T14:45:52.369Z,23.04
2022-09-24T14:48:29.703Z,23.06
2022-09-24T14:50:58.007Z,23.34
2022-09-24T14:53:29.713Z,23.72
2022-09-24T14:55:58.301Z,24.10
2022-09-24T14:58:36.401Z,24.54
2022-09-24T15:01:08.356Z,24.74
2022-09-24T15:03:41.940Z,24.79
2022-09-24T15:06:20.697Z,24.79
2022-09-24T15:08:59.356Z,24.93
2022-09-24T15:11:30.013Z,24.77
2022-09-24T15:14:12.822Z,24.67
2022-09-24T15:16:41.703Z,24.29
2022-09-24T15:19:19.455Z,24.42
2022-09-24T15:21:49.217Z,25.27
2022-09-24T15:24:17.646Z,24.81
2022-09-24T15:26:47.998Z,24.60
2022-09-24T15:29:24.657Z,24.40
2022-09-24T15:31:53.135Z,24.11
2022-09-24T15:34:21.306Z,24.01
2022-09-24T15:36:49.986Z,24.18
2022-09-24T15:39:19.991Z,23.77
2022-09-24T15:41:47.963Z,23.65
2022-09-24T15:44:23.119Z,23.58
2022-09-24T15:46:52.408Z,23.46
2022-09-24T15:49:22.330Z,23.20
2022-09-24T15:51:53.265Z,22.65
2022-09-24T15:54:21.818Z,22.62
2022-09-24T15:56:52.471Z,22.69
2022-09-24T15:59:23.637Z,22.75
2022-09-24T16:01:55.598Z,22.84
2022-09-24T16:04:24.024Z,22.71
2022-09-24T16:06:53.347Z,22.75
2022-09-24T16:09:21.891Z,22.69
2022-09-24T16:11:50.917Z,22.77
2022-09-24T16:14:19.468Z,22.67
2022-09-24T16:16:48.874Z,22.65
2022-09-24T16:19:16.908Z,22.49
2022-09-24T16:21:45.052Z,22.20
2022-09-24T16:24:13.480Z,22.19
2022-09-24T16:26:41.896Z,22.19
2022-09-24T16:29:12.262Z,22.21
2022-09-24T16:31:41.427Z,21.82
2022-09-24T16:34:12.229Z,20.50
2022-09-24T16:36:40.439Z,20.38
2022-09-24T16:39:08.617Z,20.49
2022-09-24T16:41:38.093Z,20.31
2022-09-24T16:44:06.985Z,20.38
2022-09-24T16:46:35.253Z,20.42
2022-09-24T16:49:03.850Z,20.45
2022-09-24T16:51:33.954Z,20.61
2022-09-24T16:54:02.512Z,20.72
2022-09-24T16:56:30.855Z,20.71
2022-09-24T16:58:59.663Z,20.74
2022-09-24T17:01:28.417Z,20.68
2022-09-24T17:03:59.673Z,20.61
2022-09-24T17:06:30.410Z,20.59
2022-09-24T17:09:18.025Z,20.64
2022-09-24T17:11:48.557Z,20.70
2022-09-24T17:14:19.139Z,20.64
2022-09-24T17:16:47.586Z,20.55
2022-09-24T17:19:16.940Z,20.38
2022-09-24T17:21:47.013Z,20.24
2022-09-24T17:24:21.572Z,20.11
2022-09-24T17:26:51.112Z,19.95
2022-09-24T17:29:22.508Z,19.88
2022-09-24T17:31:51.171Z,19.81
2022-09-24T17:34:19.898Z,19.73
2022-09-24T17:36:48.785Z,19.59
2022-09-24T17:39:19.507Z,19.47
2022-09-24T17:41:47.742Z,19.37
2022-09-24T17:44:18.263Z,19.28
2022-09-24T17:46:46.702Z,19.20
2022-09-24T17:49:15.866Z,19.16
2022-09-24T17:51:44.395Z,19.05
2022-09-24T17:54:14.949Z,18.84
2022-09-24T17:56:45.294Z,18.81
2022-09-24T17:59:15.463Z,18.87
2022-09-24T18:01:45.814Z,18.83
2022-09-24T18:04:16.664Z,18.67
2022-09-24T18:06:47.242Z,18.63
2022-09-24T18:09:17.455Z,18.63
2022-09-24T18:11:49.873Z,18.55
2022-09-24T18:14:20.331Z,18.60
2022-09-24T18:16:49.477Z,18.76
2022-09-24T18:19:18.685Z,17.60
2022-09-24T18:21:48.648Z,16.17
2022-09-24T18:24:18.277Z,15.84
2022-09-24T18:26:51.573Z,15.72
2022-09-24T18:29:21.564Z,15.50
2022-09-24T18:31:51.809Z,14.39
2022-09-24T18:34:20.394Z,13.54
2022-09-24T18:36:48.831Z,13.20
2022-09-24T18:39:23.902Z,12.95
2022-09-24T18:41:55.008Z,12.90
2022-09-24T18:44:23.360Z,12.79
2022-09-24T18:46:51.703Z,12.59
2022-09-24T18:49:20.651Z,12.47
2022-09-24T18:51:49.243Z,12.59
2022-09-24T18:54:18.490Z,12.43
2022-09-24T18:56:46.750Z,12.52
2022-09-24T18:59:18.700Z,12.60
2022-09-24T19:01:49.081Z,12.59
2022-09-24T19:04:18.098Z,12.58
2022-09-24T19:06:48.191Z,12.63
2022-09-24T19:09:17.955Z,12.58
2022-09-24T19:11:46.606Z,12.57
2022-09-24T19:14:18.375Z,12.67
2022-09-24T19:16:47.521Z,12.68
2022-09-24T19:19:16.712Z,12.77
2022-09-24T19:21:44.579Z,12.67
2022-09-24T19:24:12.897Z,12.73
2022-09-24T19:26:41.212Z,12.91
2022-09-24T19:29:09.789Z,13.14
2022-09-24T19:31:41.417Z,13.07
2022-09-24T19:34:12.675Z,12.98
2022-09-24T19:36:43.893Z,13.07
2022-09-24T19:39:13.020Z,13.38
2022-09-24T19:41:41.224Z,13.25
2022-09-24T19:44:09.675Z,13.48
2022-09-24T19:46:39.849Z,13.67
2022-09-24T19:49:10.193Z,13.74
2022-09-24T19:51:38.765Z,13.90
2022-09-24T19:54:08.385Z,14.05
2022-09-24T19:56:36.941Z,14.05
2022-09-24T19:59:07.755Z,14.25
2022-09-24T20:01:35.901Z,14.40
2022-09-24T20:04:08.162Z,14.47
2022-09-24T20:06:38.667Z,14.52
2022-09-24T20:09:07.248Z,13.78
2022-09-24T20:11:35.236Z,13.87
2022-09-24T20:14:03.229Z,14.08
2022-09-24T20:16:32.586Z,14.24
2022-09-24T20:19:02.291Z,14.06
2022-09-24T20:21:35.387Z,13.88
2022-09-24T20:24:04.822Z,13.95
2022-09-24T20:26:51.091Z,14.05
2022-09-24T20:29:21.599Z,13.24
2022-09-24T20:31:52.467Z,13.08
2022-09-24T20:34:21.938Z,12.94
2022-09-24T20:36:51.618Z,12.97
2022-09-24T20:39:20.005Z,13.12
2022-09-24T20:41:49.429Z,13.40
2022-09-24T20:44:17.435Z,13.72
2022-09-24T20:46:45.137Z,13.85
2022-09-24T20:49:22.971Z,14.27
2022-09-24T20:51:56.945Z,14.50
2022-09-24T20:54:27.257Z,14.69
2022-09-24T20:56:56.237Z,14.85
2022-09-24T20:59:25.942Z,15.00
2022-09-24T21:01:54.301Z,15.00
2022-09-24T21:04:22.607Z,14.98
2022-09-24T21:06:52.705Z,15.01
2022-09-24T21:09:20.801Z,14.82
2022-09-24T21:11:50.083Z,14.64
2022-09-24T21:14:18.819Z,14.62
2022-09-24T21:16:47.314Z,14.59
2022-09-24T21:19:16.245Z,14.46
2022-09-24T21:21:43.981Z,14.41
2022-09-24T21:24:16.023Z,14.49
2022-09-24T21:26:45.059Z,14.32
2022-09-24T21:29:16.618Z,14.26
2022-09-24T21:31:46.492Z,14.18
2022-09-24T21:34:17.060Z,14.24
2022-09-24T21:36:46.746Z,14.17
2022-09-24T21:39:18.750Z,14.14
2022-09-24T21:41:50.372Z,14.11
2022-09-24T21:44:19.479Z,14.14
2022-09-24T21:46:47.727Z,14.15
2022-09-24T21:49:17.170Z,14.17
2022-09-24T21:51:46.134Z,14.01
2022-09-24T21:54:17.460Z,13.94
2022-09-24T21:56:46.637Z,13.93
2022-09-24T21:59:32.607Z,13.77
2022-09-24T22:02:00.650Z,13.68
2022-09-24T22:04:29.619Z,13.42
2022-09-24T22:06:57.571Z,13.06
2022-09-24T22:09:27.383Z,12.98
2022-09-24T22:11:55.741Z,12.97
2022-09-24T22:14:23.678Z,12.95
2022-09-24T22:16:51.511Z,12.84
2022-09-24T22:19:19.506Z,12.89
2022-09-24T22:21:47.223Z,13.01
2022-09-24T22:24:16.207Z,13.20
2022-09-24T22:26:46.089Z,13.23
2022-09-24T22:29:13.948Z,13.52
2022-09-24T22:31:41.720Z,13.72
2022-09-24T22:34:28.078Z,13.82
2022-09-24T22:36:55.703Z,13.90
2022-09-24T22:39:23.560Z,14.01
2022-09-24T22:41:52.642Z,14.03
2022-09-24T22:44:20.492Z,14.27
2022-09-24T22:46:48.196Z,14.45
2022-09-24T22:49:16.081Z,14.62
2022-09-24T22:51:44.514Z,14.75
2022-09-24T22:54:13.983Z,14.81
2022-09-24T22:56:41.802Z,14.95
2022-09-24T22:59:10.929Z,14.97
2022-09-24T23:01:42.612Z,15.00
2022-09-24T23:04:13.251Z,14.89
2022-09-24T23:06:41.378Z,14.79
2022-09-24T23:09:10.072Z,14.75
2022-09-24T23:11:38.009Z,14.78
2022-09-24T23:14:07.587Z,14.81
2022-09-24T23:16:38.522Z,14.83
2022-09-24T23:19:08.389Z,14.87
2022-09-24T23:21:37.291Z,14.94
2022-09-24T23:24:09.171Z,14.98
2022-09-24T23:26:37.238Z,14.95
2022-09-24T23:29:04.905Z,14.87
2022-09-24T23:31:35.653Z,14.88
2022-09-24T23:34:06.963Z,14.99
2022-09-24T23:36:35.878Z,15.09
2022-09-24T23:39:05.239Z,15.05
2022-09-24T23:41:32.967Z,14.94
2022-09-24T23:44:01.063Z,14.69
2022-09-24T23:46:29.171Z,14.60
2022-09-24T23:48:57.617Z,14.42
2022-09-24T23:51:26.822Z,14.54
2022-09-24T23:53:55.215Z,14.62
2022-09-24T23:56:23.065Z,14.59
2022-09-24T23:58:50.965Z,14.62
